sensor_id;sensor_type;location;lat;lon;timestamp;temperature;humidity
9209;DHT22;4639;48.862;9.188;2022-12-05T00:00:59;4.00;99.90
9209;DHT22;4639;48.862;9.188;2022-12-05T00:03:35;3.90;99.90
9209;DHT22;4639;48.862;9.188;2022-12-05T00:06:03;3.90;99.90
9209;DHT22;4639;48.862;9.188;2022-12-05T00:08:28;4.00;99.90
9209;DHT22;4639;48.862;9.188;2022-12-05T00:10:54;3.90;99.90
9209;DHT22;4639;48.862;9.188;2022-12-05T00:13:19;3.90;99.90
9209;DHT22;4639;48.862;9.188;2022-12-05T00:15:45;3.90;99.90
9209;DHT22;4639;48.862;9.188;2022-12-05T00:18:10;3.90;99.90
9209;DHT22;4639;48.862;9.188;2022-12-05T00:20:36;3.90;99.90
9209;DHT22;4639;48.862;9.188;2022-12-05T00:23:02;3.90;99.90
9209;DHT22;4639;48.862;9.188;2022-12-05T00:25:27;3.90;99.90
9209;DHT22;4639;48.862;9.188;2022-12-05T00:27:53;4.00;99.90
9209;DHT22;4639;48.862;9.188;2022-12-05T00:30:18;4.00;99.90
9209;DHT22;4639;48.862;9.188;2022-12-05T00:32:44;3.90;99.90
9209;DHT22;4639;48.862;9.188;2022-12-05T00:35:09;3.90;99.90
9209;DHT22;4639;48.862;9.188;2022-12-05T00:37:35;3.80;99.90
9209;DHT22;4639;48.862;9.188;2022-12-05T00:40:01;3.90;99.90
9209;DHT22;4639;48.862;9.188;2022-12-05T00:42:26;3.90;99.90
9209;DHT22;4639;48.862;9.188;2022-12-05T00:44:52;3.80;99.90
9209;DHT22;4639;48.862;9.188;2022-12-05T00:47:17;3.80;99.90
9209;DHT22;4639;48.862;9.188;2022-12-05T00:49:43;3.80;99.90
9209;DHT22;4639;48.862;9.188;2022-12-05T00:52:09;3.80;99.90
9209;DHT22;4639;48.862;9.188;2022-12-05T00:54:34;3.80;99.90
9209;DHT22;4639;48.862;9.188;2022-12-05T00:57:00;3.80;99.90
9209;DHT22;4639;48.862;9.188;2022-12-05T00:59:25;3.80;99.90
9209;DHT22;4639;48.862;9.188;2022-12-05T01:01:51;3.70;99.90
9209;DHT22;4639;48.862;9.188;2022-12-05T01:04:23;3.70;99.90
9209;DHT22;4639;48.862;9.188;2022-12-05T01:06:49;3.70;99.90
9209;DHT22;4639;48.862;9.188;2022-12-05T01:09:19;3.60;99.90
9209;DHT22;4639;48.862;9.188;2022-12-05T01:11:44;3.70;99.90
9209;DHT22;4639;48.862;9.188;2022-12-05T01:14:12;3.80;99.90
9209;DHT22;4639;48.862;9.188;2022-12-05T01:16:40;3.80;99.90
9209;DHT22;4639;48.862;9.188;2022-12-05T01:19:10;3.80;99.90
9209;DHT22;4639;48.862;9.188;2022-12-05T01:21:35;3.80;99.90
9209;DHT22;4639;48.862;9.188;2022-12-05T01:24:01;3.90;99.90
9209;DHT22;4639;48.862;9.188;2022-12-05T01:26:27;3.80;99.90
9209;DHT22;4639;48.862;9.188;2022-12-05T01:28:53;3.90;99.90
9209;DHT22;4639;48.862;9.188;2022-12-05T01:33:48;4.00;99.90
9209;DHT22;4639;48.862;9.188;2022-12-05T01:36:15;4.00;99.90
9209;DHT22;4639;48.862;9.188;2022-12-05T01:38:42;4.00;99.90
9209;DHT22;4639;48.862;9.188;2022-12-05T01:41:11;4.00;99.90
9209;DHT22;4639;48.862;9.188;2022-12-05T01:43:59;4.00;99.90
9209;DHT22;4639;48.862;9.188;2022-12-05T01:46:26;4.00;99.90
9209;DHT22;4639;48.862;9.188;2022-12-05T01:48:57;4.00;99.90
9209;DHT22;4639;48.862;9.188;2022-12-05T01:51:25;4.00;99.90
9209;DHT22;4639;48.862;9.188;2022-12-05T01:53:50;4.10;99.90
9209;DHT22;4639;48.862;9.188;2022-12-05T01:56:17;4.10;99.90
9209;DHT22;4639;48.862;9.188;2022-12-05T01:58:44;4.10;99.90
9209;DHT22;4639;48.862;9.188;2022-12-05T02:01:11;4.00;99.90
9209;DHT22;4639;48.862;9.188;2022-12-05T02:03:39;4.00;99.90
9209;DHT22;4639;48.862;9.188;2022-12-05T02:06:05;4.10;99.90
9209;DHT22;4639;48.862;9.188;2022-12-05T02:08:31;4.10;99.90
9209;DHT22;4639;48.862;9.188;2022-12-05T02:10:57;4.10;99.90
9209;DHT22;4639;48.862;9.188;2022-12-05T02:19:26;4.00;99.90
9209;DHT22;4639;48.862;9.188;2022-12-05T02:25:18;4.00;99.90
9209;DHT22;4639;48.862;9.188;2022-12-05T02:28:08;4.00;99.90
9209;DHT22;4639;48.862;9.188;2022-12-05T02:30:45;4.00;99.90
9209;DHT22;4639;48.862;9.188;2022-12-05T02:33:45;4.00;99.90
9209;DHT22;4639;48.862;9.188;2022-12-05T02:36:22;4.00;99.90
9209;DHT22;4639;48.862;9.188;2022-12-05T02:41:40;4.00;99.90
9209;DHT22;4639;48.862;9.188;2022-12-05T02:46:44;3.80;99.90
9209;DHT22;4639;48.862;9.188;2022-12-05T02:49:17;3.80;99.90
9209;DHT22;4639;48.862;9.188;2022-12-05T02:51:47;3.70;99.90
9209;DHT22;4639;48.862;9.188;2022-12-05T02:54:18;3.80;99.90
9209;DHT22;4639;48.862;9.188;2022-12-05T02:56:45;3.70;99.90
9209;DHT22;4639;48.862;9.188;2022-12-05T02:59:12;3.70;99.90
9209;DHT22;4639;48.862;9.188;2022-12-05T03:01:37;3.70;99.90
9209;DHT22;4639;48.862;9.188;2022-12-05T03:04:05;3.80;99.90
9209;DHT22;4639;48.862;9.188;2022-12-05T03:06:34;3.80;99.90
9209;DHT22;4639;48.862;9.188;2022-12-05T03:09:08;3.80;99.90
9209;DHT22;4639;48.862;9.188;2022-12-05T03:11:48;3.80;99.90
9209;DHT22;4639;48.862;9.188;2022-12-05T03:14:27;3.90;99.90
9209;DHT22;4639;48.862;9.188;2022-12-05T03:16:58;3.90;99.90
9209;DHT22;4639;48.862;9.188;2022-12-05T03:22:18;3.90;99.90
9209;DHT22;4639;48.862;9.188;2022-12-05T03:24:46;4.00;99.90
9209;DHT22;4639;48.862;9.188;2022-12-05T03:30:05;4.10;99.90
9209;DHT22;4639;48.862;9.188;2022-12-05T03:33:08;4.10;99.90
9209;DHT22;4639;48.862;9.188;2022-12-05T03:36:01;4.20;99.90
9209;DHT22;4639;48.862;9.188;2022-12-05T03:38:33;4.40;99.90
9209;DHT22;4639;48.862;9.188;2022-12-05T03:43:46;4.40;99.90
9209;DHT22;4639;48.862;9.188;2022-12-05T03:46:40;4.30;99.90
9209;DHT22;4639;48.862;9.188;2022-12-05T03:52:34;4.20;99.90
9209;DHT22;4639;48.862;9.188;2022-12-05T03:55:04;4.20;99.90
9209;DHT22;4639;48.862;9.188;2022-12-05T03:57:51;4.30;99.90
9209;DHT22;4639;48.862;9.188;2022-12-05T04:00:20;4.30;99.90
9209;DHT22;4639;48.862;9.188;2022-12-05T04:02:56;4.20;99.90
9209;DHT22;4639;48.862;9.188;2022-12-05T04:05:53;4.20;99.90
9209;DHT22;4639;48.862;9.188;2022-12-05T04:08:34;4.30;99.90
9209;DHT22;4639;48.862;9.188;2022-12-05T04:11:04;4.30;99.90
9209;DHT22;4639;48.862;9.188;2022-12-05T04:13:51;4.50;99.90
9209;DHT22;4639;48.862;9.188;2022-12-05T04:16:30;4.60;99.90
9209;DHT22;4639;48.862;9.188;2022-12-05T04:19:23;4.70;99.90
9209;DHT22;4639;48.862;9.188;2022-12-05T04:21:54;4.80;99.90
9209;DHT22;4639;48.862;9.188;2022-12-05T04:24:22;4.90;99.90
9209;DHT22;4639;48.862;9.188;2022-12-05T04:30:05;4.90;99.90
9209;DHT22;4639;48.862;9.188;2022-12-05T04:35:34;5.00;99.90
9209;DHT22;4639;48.862;9.188;2022-12-05T04:38:09;5.00;99.90
9209;DHT22;4639;48.862;9.188;2022-12-05T04:40:43;4.90;99.90
9209;DHT22;4639;48.862;9.188;2022-12-05T04:43:12;4.90;99.90
9209;DHT22;4639;48.862;9.188;2022-12-05T04:45:39;4.90;99.90
9209;DHT22;4639;48.862;9.188;2022-12-05T04:48:10;4.90;99.90
9209;DHT22;4639;48.862;9.188;2022-12-05T04:50:37;4.90;99.90
9209;DHT22;4639;48.862;9.188;2022-12-05T04:53:05;4.90;99.90
9209;DHT22;4639;48.862;9.188;2022-12-05T04:55:32;5.20;99.90
9209;DHT22;4639;48.862;9.188;2022-12-05T04:58:11;5.00;99.90
9209;DHT22;4639;48.862;9.188;2022-12-05T05:03:24;5.00;99.90
9209;DHT22;4639;48.862;9.188;2022-12-05T05:05:54;5.00;99.90
9209;DHT22;4639;48.862;9.188;2022-12-05T05:08:23;5.00;99.90
9209;DHT22;4639;48.862;9.188;2022-12-05T05:11:18;5.00;99.90
9209;DHT22;4639;48.862;9.188;2022-12-05T05:13:44;4.90;99.90
9209;DHT22;4639;48.862;9.188;2022-12-05T05:16:18;4.80;99.90
9209;DHT22;4639;48.862;9.188;2022-12-05T05:18:45;4.70;99.90
9209;DHT22;4639;48.862;9.188;2022-12-05T05:23:44;4.80;99.90
9209;DHT22;4639;48.862;9.188;2022-12-05T05:26:10;4.80;99.90
9209;DHT22;4639;48.862;9.188;2022-12-05T05:28:35;4.70;99.90
9209;DHT22;4639;48.862;9.188;2022-12-05T05:31:02;4.70;99.90
9209;DHT22;4639;48.862;9.188;2022-12-05T05:33:28;4.70;99.90
9209;DHT22;4639;48.862;9.188;2022-12-05T05:35:53;4.70;99.90
9209;DHT22;4639;48.862;9.188;2022-12-05T05:38:19;4.80;99.90
9209;DHT22;4639;48.862;9.188;2022-12-05T05:40:44;4.70;99.90
9209;DHT22;4639;48.862;9.188;2022-12-05T05:43:10;4.60;99.90
9209;DHT22;4639;48.862;9.188;2022-12-05T05:45:36;4.50;99.90
9209;DHT22;4639;48.862;9.188;2022-12-05T05:48:01;4.60;99.90
9209;DHT22;4639;48.862;9.188;2022-12-05T05:50:27;4.60;99.90
9209;DHT22;4639;48.862;9.188;2022-12-05T05:52:53;4.70;99.90
9209;DHT22;4639;48.862;9.188;2022-12-05T05:55:19;4.60;99.90
9209;DHT22;4639;48.862;9.188;2022-12-05T05:57:45;4.60;99.90
9209;DHT22;4639;48.862;9.188;2022-12-05T06:00:11;4.60;99.90
9209;DHT22;4639;48.862;9.188;2022-12-05T06:02:37;4.50;99.90
9209;DHT22;4639;48.862;9.188;2022-12-05T06:05:03;4.60;99.90
9209;DHT22;4639;48.862;9.188;2022-12-05T06:07:29;4.70;99.90
9209;DHT22;4639;48.862;9.188;2022-12-05T06:09:55;4.80;99.90
9209;DHT22;4639;48.862;9.188;2022-12-05T06:12:21;4.90;99.90
9209;DHT22;4639;48.862;9.188;2022-12-05T06:14:48;4.90;99.90
9209;DHT22;4639;48.862;9.188;2022-12-05T06:17:14;5.00;99.90
9209;DHT22;4639;48.862;9.188;2022-12-05T06:19:39;5.00;99.90
9209;DHT22;4639;48.862;9.188;2022-12-05T06:22:05;5.10;99.90
9209;DHT22;4639;48.862;9.188;2022-12-05T06:24:30;5.00;99.90
9209;DHT22;4639;48.862;9.188;2022-12-05T06:26:56;4.90;99.90
9209;DHT22;4639;48.862;9.188;2022-12-05T06:29:21;4.80;99.90
9209;DHT22;4639;48.862;9.188;2022-12-05T06:31:47;4.70;99.90
9209;DHT22;4639;48.862;9.188;2022-12-05T06:34:13;4.70;99.90
9209;DHT22;4639;48.862;9.188;2022-12-05T06:36:38;4.70;99.90
9209;DHT22;4639;48.862;9.188;2022-12-05T06:39:04;4.80;99.90
9209;DHT22;4639;48.862;9.188;2022-12-05T06:41:29;4.90;99.90
9209;DHT22;4639;48.862;9.188;2022-12-05T06:43:57;4.80;99.90
9209;DHT22;4639;48.862;9.188;2022-12-05T06:46:24;4.70;99.90
9209;DHT22;4639;48.862;9.188;2022-12-05T06:48:54;4.60;99.90
9209;DHT22;4639;48.862;9.188;2022-12-05T06:51:20;4.60;99.90
9209;DHT22;4639;48.862;9.188;2022-12-05T06:53:45;4.60;99.90
9209;DHT22;4639;48.862;9.188;2022-12-05T06:56:14;4.60;99.90
9209;DHT22;4639;48.862;9.188;2022-12-05T06:58:45;4.70;99.90
9209;DHT22;4639;48.862;9.188;2022-12-05T07:01:15;4.70;99.90
9209;DHT22;4639;48.862;9.188;2022-12-05T07:04:00;4.70;99.90
9209;DHT22;4639;48.862;9.188;2022-12-05T07:06:27;4.60;99.90
9209;DHT22;4639;48.862;9.188;2022-12-05T07:08:53;4.60;99.90
9209;DHT22;4639;48.862;9.188;2022-12-05T07:11:19;4.70;99.90
9209;DHT22;4639;48.862;9.188;2022-12-05T07:13:44;4.70;99.90
9209;DHT22;4639;48.862;9.188;2022-12-05T07:16:10;4.70;99.90
9209;DHT22;4639;48.862;9.188;2022-12-05T07:18:35;4.80;99.90
9209;DHT22;4639;48.862;9.188;2022-12-05T07:21:07;4.90;99.90
9209;DHT22;4639;48.862;9.188;2022-12-05T07:24:11;5.00;99.90
9209;DHT22;4639;48.862;9.188;2022-12-05T07:26:37;4.90;99.90
9209;DHT22;4639;48.862;9.188;2022-12-05T07:29:02;5.00;99.90
9209;DHT22;4639;48.862;9.188;2022-12-05T07:31:28;5.00;99.90
9209;DHT22;4639;48.862;9.188;2022-12-05T07:33:54;5.00;99.90
9209;DHT22;4639;48.862;9.188;2022-12-05T07:36:21;4.90;99.90
9209;DHT22;4639;48.862;9.188;2022-12-05T07:38:47;4.80;99.90
9209;DHT22;4639;48.862;9.188;2022-12-05T07:41:22;4.80;99.90
9209;DHT22;4639;48.862;9.188;2022-12-05T07:43:49;4.80;99.90
9209;DHT22;4639;48.862;9.188;2022-12-05T07:46:15;4.90;99.90
9209;DHT22;4639;48.862;9.188;2022-12-05T07:48:42;4.90;99.90
9209;DHT22;4639;48.862;9.188;2022-12-05T07:51:09;4.90;99.90
9209;DHT22;4639;48.862;9.188;2022-12-05T07:53:35;4.90;99.90
9209;DHT22;4639;48.862;9.188;2022-12-05T07:56:03;5.10;99.90
9209;DHT22;4639;48.862;9.188;2022-12-05T07:58:30;5.10;99.90
9209;DHT22;4639;48.862;9.188;2022-12-05T08:01:03;5.10;99.90
9209;DHT22;4639;48.862;9.188;2022-12-05T08:03:32;5.40;99.90
9209;DHT22;4639;48.862;9.188;2022-12-05T08:06:03;5.10;99.90
9209;DHT22;4639;48.862;9.188;2022-12-05T08:08:29;5.10;99.90
9209;DHT22;4639;48.862;9.188;2022-12-05T08:10:54;5.10;99.90
9209;DHT22;4639;48.862;9.188;2022-12-05T08:13:20;5.20;99.90
9209;DHT22;4639;48.862;9.188;2022-12-05T08:15:45;5.20;99.90
9209;DHT22;4639;48.862;9.188;2022-12-05T08:18:11;5.10;99.90
9209;DHT22;4639;48.862;9.188;2022-12-05T08:20:37;5.10;99.90
9209;DHT22;4639;48.862;9.188;2022-12-05T08:23:02;5.10;99.90
9209;DHT22;4639;48.862;9.188;2022-12-05T08:25:28;5.00;99.90
9209;DHT22;4639;48.862;9.188;2022-12-05T08:27:53;5.10;99.90
9209;DHT22;4639;48.862;9.188;2022-12-05T08:30:19;5.10;99.90
9209;DHT22;4639;48.862;9.188;2022-12-05T08:32:44;5.00;99.90
9209;DHT22;4639;48.862;9.188;2022-12-05T08:35:10;4.90;99.90
9209;DHT22;4639;48.862;9.188;2022-12-05T08:37:36;4.90;99.90
9209;DHT22;4639;48.862;9.188;2022-12-05T08:40:02;5.00;99.90
9209;DHT22;4639;48.862;9.188;2022-12-05T08:42:28;4.90;99.90
9209;DHT22;4639;48.862;9.188;2022-12-05T08:44:53;5.00;99.90
9209;DHT22;4639;48.862;9.188;2022-12-05T08:47:19;5.10;99.90
9209;DHT22;4639;48.862;9.188;2022-12-05T08:49:44;5.20;99.90
9209;DHT22;4639;48.862;9.188;2022-12-05T08:52:10;5.10;99.90
9209;DHT22;4639;48.862;9.188;2022-12-05T08:54:35;5.20;99.90
9209;DHT22;4639;48.862;9.188;2022-12-05T08:57:01;5.40;99.90
9209;DHT22;4639;48.862;9.188;2022-12-05T08:59:27;5.40;99.90
9209;DHT22;4639;48.862;9.188;2022-12-05T09:01:52;5.40;99.90
9209;DHT22;4639;48.862;9.188;2022-12-05T09:04:18;5.50;99.90
9209;DHT22;4639;48.862;9.188;2022-12-05T09:06:43;5.60;99.90
9209;DHT22;4639;48.862;9.188;2022-12-05T09:09:10;5.70;99.90
9209;DHT22;4639;48.862;9.188;2022-12-05T09:11:42;5.80;99.90
9209;DHT22;4639;48.862;9.188;2022-12-05T09:14:11;5.80;99.90
9209;DHT22;4639;48.862;9.188;2022-12-05T09:16:38;5.90;99.90
9209;DHT22;4639;48.862;9.188;2022-12-05T09:19:04;5.90;99.90
9209;DHT22;4639;48.862;9.188;2022-12-05T09:21:32;5.90;99.90
9209;DHT22;4639;48.862;9.188;2022-12-05T09:23:59;5.90;99.90
9209;DHT22;4639;48.862;9.188;2022-12-05T09:26:25;5.90;99.90
9209;DHT22;4639;48.862;9.188;2022-12-05T09:28:51;5.90;99.90
9209;DHT22;4639;48.862;9.188;2022-12-05T09:31:20;5.90;99.90
9209;DHT22;4639;48.862;9.188;2022-12-05T09:33:47;5.90;99.90
9209;DHT22;4639;48.862;9.188;2022-12-05T09:36:16;5.90;99.90
9209;DHT22;4639;48.862;9.188;2022-12-05T09:38:43;5.90;99.90
9209;DHT22;4639;48.862;9.188;2022-12-05T09:41:34;5.90;99.90
9209;DHT22;4639;48.862;9.188;2022-12-05T09:50:02;6.00;99.90
9209;DHT22;4639;48.862;9.188;2022-12-05T09:52:37;6.10;99.90
9209;DHT22;4639;48.862;9.188;2022-12-05T09:55:12;6.10;99.90
9209;DHT22;4639;48.862;9.188;2022-12-05T09:57:48;6.20;99.90
9209;DHT22;4639;48.862;9.188;2022-12-05T10:00:16;6.30;99.90
9209;DHT22;4639;48.862;9.188;2022-12-05T10:06:01;6.40;99.90
9209;DHT22;4639;48.862;9.188;2022-12-05T10:09:12;6.50;99.90
9209;DHT22;4639;48.862;9.188;2022-12-05T10:12:01;6.60;99.90
9209;DHT22;4639;48.862;9.188;2022-12-05T10:14:56;6.70;99.90
9209;DHT22;4639;48.862;9.188;2022-12-05T10:17:26;6.60;99.90
9209;DHT22;4639;48.862;9.188;2022-12-05T10:19:58;6.70;99.90
9209;DHT22;4639;48.862;9.188;2022-12-05T10:22:47;6.60;99.90
9209;DHT22;4639;48.862;9.188;2022-12-05T10:25:18;6.70;99.90
9209;DHT22;4639;48.862;9.188;2022-12-05T10:27:52;6.70;99.90
9209;DHT22;4639;48.862;9.188;2022-12-05T10:30:21;6.70;99.90
9209;DHT22;4639;48.862;9.188;2022-12-05T10:32:53;6.70;99.90
9209;DHT22;4639;48.862;9.188;2022-12-05T10:35:36;6.70;99.90
9209;DHT22;4639;48.862;9.188;2022-12-05T10:38:13;6.70;99.90
9209;DHT22;4639;48.862;9.188;2022-12-05T10:40:44;6.60;99.90
9209;DHT22;4639;48.862;9.188;2022-12-05T10:43:13;6.50;99.90
9209;DHT22;4639;48.862;9.188;2022-12-05T10:45:43;6.50;99.90
9209;DHT22;4639;48.862;9.188;2022-12-05T10:48:14;6.50;99.90
9209;DHT22;4639;48.862;9.188;2022-12-05T10:50:41;6.60;99.90
9209;DHT22;4639;48.862;9.188;2022-12-05T10:53:12;6.50;99.90
9209;DHT22;4639;48.862;9.188;2022-12-05T10:55:42;6.50;99.90
9209;DHT22;4639;48.862;9.188;2022-12-05T11:00:53;6.70;99.90
9209;DHT22;4639;48.862;9.188;2022-12-05T11:03:35;6.80;99.90
9209;DHT22;4639;48.862;9.188;2022-12-05T11:06:14;6.90;99.90
9209;DHT22;4639;48.862;9.188;2022-12-05T11:08:41;6.90;99.90
9209;DHT22;4639;48.862;9.188;2022-12-05T11:11:17;7.00;99.90
9209;DHT22;4639;48.862;9.188;2022-12-05T11:13:58;7.10;99.90
9209;DHT22;4639;48.862;9.188;2022-12-05T11:16:29;7.10;99.90
9209;DHT22;4639;48.862;9.188;2022-12-05T11:18:55;7.20;99.90
9209;DHT22;4639;48.862;9.188;2022-12-05T11:21:20;7.20;99.90
9209;DHT22;4639;48.862;9.188;2022-12-05T11:23:47;7.20;99.90
9209;DHT22;4639;48.862;9.188;2022-12-05T11:26:35;7.30;99.90
9209;DHT22;4639;48.862;9.188;2022-12-05T11:29:03;7.40;99.90
9209;DHT22;4639;48.862;9.188;2022-12-05T11:31:30;7.40;99.90
9209;DHT22;4639;48.862;9.188;2022-12-05T11:36:50;7.40;99.90
9209;DHT22;4639;48.862;9.188;2022-12-05T11:39:17;7.20;99.90
9209;DHT22;4639;48.862;9.188;2022-12-05T11:42:08;7.20;99.90
9209;DHT22;4639;48.862;9.188;2022-12-05T11:50:10;7.50;99.90
9209;DHT22;4639;48.862;9.188;2022-12-05T11:58:28;8.30;99.90
9209;DHT22;4639;48.862;9.188;2022-12-05T12:01:23;8.40;99.90
9209;DHT22;4639;48.862;9.188;2022-12-05T12:04:24;8.50;99.90
9209;DHT22;4639;48.862;9.188;2022-12-05T12:12:39;8.50;99.90
9209;DHT22;4639;48.862;9.188;2022-12-05T12:21:04;8.30;99.90
9209;DHT22;4639;48.862;9.188;2022-12-05T12:23:42;8.20;99.90
9209;DHT22;4639;48.862;9.188;2022-12-05T12:34:52;8.20;99.90
9209;DHT22;4639;48.862;9.188;2022-12-05T12:49:07;8.40;99.90
9209;DHT22;4639;48.862;9.188;2022-12-05T12:51:42;8.30;99.90
9209;DHT22;4639;48.862;9.188;2022-12-05T12:54:35;8.30;99.90
9209;DHT22;4639;48.862;9.188;2022-12-05T13:02:40;8.30;99.90
9209;DHT22;4639;48.862;9.188;2022-12-05T13:05:31;8.40;99.90
9209;DHT22;4639;48.862;9.188;2022-12-05T13:10:40;8.50;99.90
9209;DHT22;4639;48.862;9.188;2022-12-05T13:13:12;8.50;99.90
9209;DHT22;4639;48.862;9.188;2022-12-05T13:15:42;8.40;99.90
9209;DHT22;4639;48.862;9.188;2022-12-05T13:18:18;8.30;99.90
9209;DHT22;4639;48.862;9.188;2022-12-05T13:20:46;8.30;99.90
9209;DHT22;4639;48.862;9.188;2022-12-05T13:23:15;8.40;99.90
9209;DHT22;4639;48.862;9.188;2022-12-05T13:25:43;8.50;99.90
9209;DHT22;4639;48.862;9.188;2022-12-05T13:30:55;8.60;99.90
9209;DHT22;4639;48.862;9.188;2022-12-05T13:33:33;8.70;99.90
9209;DHT22;4639;48.862;9.188;2022-12-05T13:36:05;8.60;99.90
9209;DHT22;4639;48.862;9.188;2022-12-05T13:38:59;8.60;99.90
9209;DHT22;4639;48.862;9.188;2022-12-05T13:41:54;8.50;99.90
9209;DHT22;4639;48.862;9.188;2022-12-05T13:44:43;8.60;99.90
9209;DHT22;4639;48.862;9.188;2022-12-05T13:50:09;8.20;99.90
9209;DHT22;4639;48.862;9.188;2022-12-05T13:52:58;8.20;99.90
9209;DHT22;4639;48.862;9.188;2022-12-05T13:57:59;8.10;99.90
9209;DHT22;4639;48.862;9.188;2022-12-05T14:02:58;8.00;99.90
9209;DHT22;4639;48.862;9.188;2022-12-05T14:05:36;7.90;99.90
9209;DHT22;4639;48.862;9.188;2022-12-05T14:15:52;7.60;99.90
9209;DHT22;4639;48.862;9.188;2022-12-05T14:21:17;7.50;99.90
9209;DHT22;4639;48.862;9.188;2022-12-05T14:24:15;7.50;99.90
9209;DHT22;4639;48.862;9.188;2022-12-05T14:27:00;7.50;99.90
9209;DHT22;4639;48.862;9.188;2022-12-05T14:29:59;7.40;99.90
9209;DHT22;4639;48.862;9.188;2022-12-05T14:32:38;7.40;99.90
9209;DHT22;4639;48.862;9.188;2022-12-05T14:37:57;7.30;99.90
9209;DHT22;4639;48.862;9.188;2022-12-05T14:40:37;7.40;99.90
9209;DHT22;4639;48.862;9.188;2022-12-05T14:43:06;7.30;99.90
9209;DHT22;4639;48.862;9.188;2022-12-05T14:45:38;7.30;99.90
9209;DHT22;4639;48.862;9.188;2022-12-05T14:50:55;7.40;99.90
9209;DHT22;4639;48.862;9.188;2022-12-05T14:55:57;7.30;99.90
9209;DHT22;4639;48.862;9.188;2022-12-05T15:01:33;7.20;99.90
9209;DHT22;4639;48.862;9.188;2022-12-05T15:04:17;7.20;99.90
9209;DHT22;4639;48.862;9.188;2022-12-05T15:07:03;7.30;99.90
9209;DHT22;4639;48.862;9.188;2022-12-05T15:09:50;7.20;99.90
9209;DHT22;4639;48.862;9.188;2022-12-05T15:12:35;7.20;99.90
9209;DHT22;4639;48.862;9.188;2022-12-05T15:31:34;7.10;99.90
9209;DHT22;4639;48.862;9.188;2022-12-05T15:34:10;7.20;99.90
9209;DHT22;4639;48.862;9.188;2022-12-05T15:36:44;7.20;99.90
9209;DHT22;4639;48.862;9.188;2022-12-05T15:39:20;7.10;99.90
9209;DHT22;4639;48.862;9.188;2022-12-05T15:41:51;7.10;99.90
9209;DHT22;4639;48.862;9.188;2022-12-05T15:44:18;7.10;99.90
9209;DHT22;4639;48.862;9.188;2022-12-05T15:46:50;6.90;99.90
9209;DHT22;4639;48.862;9.188;2022-12-05T15:49:26;7.00;99.90
9209;DHT22;4639;48.862;9.188;2022-12-05T15:52:33;7.00;99.90
9209;DHT22;4639;48.862;9.188;2022-12-05T15:55:07;7.00;99.90
9209;DHT22;4639;48.862;9.188;2022-12-05T15:58:42;7.00;99.90
9209;DHT22;4639;48.862;9.188;2022-12-05T16:00:48;7.00;99.90
9209;DHT22;4639;48.862;9.188;2022-12-05T16:03:22;7.00;99.90
9209;DHT22;4639;48.862;9.188;2022-12-05T16:05:58;6.90;99.90
9209;DHT22;4639;48.862;9.188;2022-12-05T16:08:25;7.00;99.90
9209;DHT22;4639;48.862;9.188;2022-12-05T16:10:54;7.00;99.90
9209;DHT22;4639;48.862;9.188;2022-12-05T16:13:22;7.00;99.90
9209;DHT22;4639;48.862;9.188;2022-12-05T16:15:51;6.90;99.90
9209;DHT22;4639;48.862;9.188;2022-12-05T16:18:31;6.80;99.90
9209;DHT22;4639;48.862;9.188;2022-12-05T16:20:57;6.90;99.90
9209;DHT22;4639;48.862;9.188;2022-12-05T16:26:17;6.90;99.90
9209;DHT22;4639;48.862;9.188;2022-12-05T16:28:59;6.90;99.90
9209;DHT22;4639;48.862;9.188;2022-12-05T16:31:26;6.90;99.90
9209;DHT22;4639;48.862;9.188;2022-12-05T16:34:04;6.90;99.90
9209;DHT22;4639;48.862;9.188;2022-12-05T16:36:30;6.80;99.90
9209;DHT22;4639;48.862;9.188;2022-12-05T16:39:04;6.80;99.90
9209;DHT22;4639;48.862;9.188;2022-12-05T16:41:32;6.80;99.90
9209;DHT22;4639;48.862;9.188;2022-12-05T16:43:58;6.80;99.90
9209;DHT22;4639;48.862;9.188;2022-12-05T16:49:23;6.80;99.90
9209;DHT22;4639;48.862;9.188;2022-12-05T16:51:58;6.80;99.90
9209;DHT22;4639;48.862;9.188;2022-12-05T16:54:24;6.80;99.90
9209;DHT22;4639;48.862;9.188;2022-12-05T16:56:50;6.80;99.90
9209;DHT22;4639;48.862;9.188;2022-12-05T16:59:29;6.80;99.90
9209;DHT22;4639;48.862;9.188;2022-12-05T17:01:56;6.80;99.90
9209;DHT22;4639;48.862;9.188;2022-12-05T17:04:21;6.90;99.90
9209;DHT22;4639;48.862;9.188;2022-12-05T17:06:47;7.00;99.90
9209;DHT22;4639;48.862;9.188;2022-12-05T17:09:12;6.90;99.90
9209;DHT22;4639;48.862;9.188;2022-12-05T17:11:41;6.90;99.90
9209;DHT22;4639;48.862;9.188;2022-12-05T17:14:14;6.80;99.90
9209;DHT22;4639;48.862;9.188;2022-12-05T17:16:40;6.90;99.90
9209;DHT22;4639;48.862;9.188;2022-12-05T17:19:07;6.90;99.90
9209;DHT22;4639;48.862;9.188;2022-12-05T17:21:33;6.90;99.90
9209;DHT22;4639;48.862;9.188;2022-12-05T17:23:59;6.90;99.90
9209;DHT22;4639;48.862;9.188;2022-12-05T17:26:25;6.90;99.90
9209;DHT22;4639;48.862;9.188;2022-12-05T17:28:51;6.90;99.90
9209;DHT22;4639;48.862;9.188;2022-12-05T17:31:19;6.90;99.90
9209;DHT22;4639;48.862;9.188;2022-12-05T17:33:49;6.90;99.90
9209;DHT22;4639;48.862;9.188;2022-12-05T17:36:15;6.80;99.90
9209;DHT22;4639;48.862;9.188;2022-12-05T17:38:41;6.60;99.90
9209;DHT22;4639;48.862;9.188;2022-12-05T17:41:14;6.50;99.90
9209;DHT22;4639;48.862;9.188;2022-12-05T17:43:40;6.60;99.90
9209;DHT22;4639;48.862;9.188;2022-12-05T17:46:06;6.70;99.90
9209;DHT22;4639;48.862;9.188;2022-12-05T17:48:32;6.70;99.90
9209;DHT22;4639;48.862;9.188;2022-12-05T17:50:59;6.70;99.90
9209;DHT22;4639;48.862;9.188;2022-12-05T17:53:27;6.80;99.90
9209;DHT22;4639;48.862;9.188;2022-12-05T17:55:52;6.80;99.90
9209;DHT22;4639;48.862;9.188;2022-12-05T17:58:18;6.80;99.90
9209;DHT22;4639;48.862;9.188;2022-12-05T18:00:45;6.80;99.90
9209;DHT22;4639;48.862;9.188;2022-12-05T18:03:16;6.80;99.90
9209;DHT22;4639;48.862;9.188;2022-12-05T18:05:42;6.80;99.90
9209;DHT22;4639;48.862;9.188;2022-12-05T18:08:08;6.80;99.90
9209;DHT22;4639;48.862;9.188;2022-12-05T18:10:34;6.80;99.90
9209;DHT22;4639;48.862;9.188;2022-12-05T18:13:00;6.80;99.90
9209;DHT22;4639;48.862;9.188;2022-12-05T18:15:25;6.80;99.90
9209;DHT22;4639;48.862;9.188;2022-12-05T18:17:51;6.90;99.90
9209;DHT22;4639;48.862;9.188;2022-12-05T18:20:17;6.80;99.90
9209;DHT22;4639;48.862;9.188;2022-12-05T18:22:42;6.80;99.90
9209;DHT22;4639;48.862;9.188;2022-12-05T18:25:09;6.80;99.90
9209;DHT22;4639;48.862;9.188;2022-12-05T18:27:35;6.80;99.90
9209;DHT22;4639;48.862;9.188;2022-12-05T18:30:03;6.80;99.90
9209;DHT22;4639;48.862;9.188;2022-12-05T18:32:29;6.80;99.90
9209;DHT22;4639;48.862;9.188;2022-12-05T18:34:54;6.70;99.90
9209;DHT22;4639;48.862;9.188;2022-12-05T18:37:23;6.60;99.90
9209;DHT22;4639;48.862;9.188;2022-12-05T18:39:49;6.60;99.90
9209;DHT22;4639;48.862;9.188;2022-12-05T18:42:14;6.50;99.90
9209;DHT22;4639;48.862;9.188;2022-12-05T18:44:40;6.60;99.90
9209;DHT22;4639;48.862;9.188;2022-12-05T18:47:06;6.50;99.90
9209;DHT22;4639;48.862;9.188;2022-12-05T18:49:31;6.30;99.90
9209;DHT22;4639;48.862;9.188;2022-12-05T18:51:57;6.30;99.90
9209;DHT22;4639;48.862;9.188;2022-12-05T18:54:23;6.40;99.90
9209;DHT22;4639;48.862;9.188;2022-12-05T18:56:48;6.40;99.90
9209;DHT22;4639;48.862;9.188;2022-12-05T18:59:18;6.40;99.90
9209;DHT22;4639;48.862;9.188;2022-12-05T19:01:44;6.40;99.90
9209;DHT22;4639;48.862;9.188;2022-12-05T19:04:12;6.30;99.90
9209;DHT22;4639;48.862;9.188;2022-12-05T19:06:39;6.30;99.90
9209;DHT22;4639;48.862;9.188;2022-12-05T19:09:09;6.30;99.90
9209;DHT22;4639;48.862;9.188;2022-12-05T19:11:35;6.20;99.90
9209;DHT22;4639;48.862;9.188;2022-12-05T19:14:03;6.20;99.90
9209;DHT22;4639;48.862;9.188;2022-12-05T19:16:30;6.20;99.90
9209;DHT22;4639;48.862;9.188;2022-12-05T19:18:58;6.20;99.90
9209;DHT22;4639;48.862;9.188;2022-12-05T19:21:26;6.20;99.90